Flight Track Log - Related Links

Times and Time Zones

All times are in EST time to prevent confusion due to time zone crossing. See the N53NW flight status page for this flight to view local times or setup timezone preferences in your user account.

Time Position Orientation Groundspeed Altitude Reporting Facility
EST Latitude Longitude Course Direction KTS MPH feet Rate Location/Type
Wed 10:05:11 AM 39.0500 -95.5833 142° Southeast 222 255 3,000  Level Kansas City TRACON
Wed 10:05:41 AM 39.0167 -95.5500 142° Southeast 226 260 5,300 4,095 Climbing Kansas City TRACON
Wed 10:06:14 AM 39.0042 -95.5242 122° Southeast 228 262 7,300 4,168 Climbing Kansas City Center
Wed 10:07:16 AM 38.9525 -95.4506 132° Southeast 250 288 11,900 4,065 Climbing Kansas City Center
Wed 10:08:18 AM 38.9033 -95.3806 132° Southeast 271 312 15,700 3,919 Climbing Kansas City Center
Wed 10:09:20 AM 38.8442 -95.2961 132° Southeast 284 327 20,000 3,484 Climbing Kansas City Center
Wed 10:10:22 AM 38.7936 -95.2236 132° Southeast 286 329 22,900 2,488 Climbing Kansas City Center
Wed 10:11:23 AM 38.7231 -95.1239 132° Southeast 341 392 25,100 2,488 Climbing Kansas City Center
Wed 10:12:25 AM 38.6592 -95.0336 132° Southeast 357 411 28,000 3,048 Climbing Kansas City Center
Wed 10:13:27 AM 38.5892 -94.9331 132° Southeast 341 392 31,400 2,419 Climbing Kansas City Center
Wed 10:14:29 AM 38.5306 -94.8522 133° Southeast 327 376 33,000 1,452 Climbing Kansas City Center
Wed 10:15:31 AM 38.4567 -94.7464 132° Southeast 355 409 34,400 968 Climbing Kansas City Center
Wed 10:16:33 AM 38.3892 -94.6544 133° Southeast 369 425 35,000 293 Climbing Kansas City Center
Wed 10:17:34 AM 38.3139 -94.5486 132° Southeast 415 478 35,000 244 Level Kansas City Center
Wed 10:18:36 AM 38.2256 -94.4200 131° Southeast 428 493 35,500 1,258 Climbing Kansas City Center
Wed 10:19:38 AM 38.1544 -94.3097 129° Southeast 425 489 37,600 1,839 Climbing Kansas City Center
Wed 10:20:40 AM 38.0814 -94.1969 129° Southeast 380 437 39,300 1,113 Climbing Kansas City Center
Wed 10:21:42 AM 38.0142 -94.0992 131° Southeast 382 440 39,900 585 Climbing Kansas City Center
Wed 10:22:43 AM 37.9453 -93.9944 130° Southeast 392 451 40,500 537 Climbing Kansas City Center
Wed 10:23:45 AM 37.8583 -93.8636 130° Southeast 402 463 41,000 242 Climbing Kansas City Center
Wed 10:24:47 AM 37.7819 -93.7492 130° Southeast 418 481 41,000  Level Kansas City Center
Wed 10:25:49 AM 37.7031 -93.6319 130° Southeast 432 497 41,000 339 Level Kansas City Center
Wed 10:26:51 AM 37.6247 -93.5150 130° Southeast 436 502 41,700 726 Climbing Kansas City Center
Wed 10:27:53 AM 37.5494 -93.4025 130° Southeast 427 491 42,500 780 Climbing Kansas City Center
Wed 10:28:54 AM 37.4739 -93.2922 131° Southeast 419 482 43,300 780 Climbing Kansas City Center
Wed 10:29:56 AM 37.4022 -93.1850 130° Southeast 411 473 44,100 823 Climbing Kansas City Center
Wed 10:30:58 AM 37.3183 -93.0606 130° Southeast 386 444 45,000 435 Climbing Kansas City Center
Wed 10:32:00 AM 37.2481 -92.9594 131° Southeast 384 442 45,000  Level Kansas City Center
Wed 10:33:02 AM 37.1764 -92.8542 130° Southeast 394 453 45,000  Level Kansas City Center
Wed 10:34:04 AM 37.1022 -92.7469 131° Southeast 404 465 45,000  Level Kansas City Center
Wed 10:35:06 AM 37.0275 -92.6375 131° Southeast 412 474 45,000  Level Kansas City Center
Wed 10:36:07 AM 36.9508 -92.5267 131° Southeast 419 482 45,000  Level Kansas City Center
Wed 10:37:09 AM 36.8722 -92.4156 131° Southeast 425 489 45,000  Level Kansas City Center
Wed 10:38:11 AM 36.7783 -92.2783 130° Southeast 432 497 45,000  Level Kansas City Center
Wed 10:39:13 AM 36.6981 -92.1664 132° Southeast 432 497 45,000  Level Kansas City Center
Wed 10:40:15 AM 36.6186 -92.0511 131° Southeast 435 501 45,000  Level Kansas City Center
Wed 10:40:46 AM 36.5867 -92.0064 132° Southeast 436 502 45,000  Level Memphis Center
Wed 10:41:48 AM 36.4900 -91.8711 132° Southeast 435 501 45,000  Level Memphis Center
Wed 10:42:50 AM 36.4114 -91.7592 131° Southeast 431 496 45,000  Level Memphis Center
Wed 10:43:51 AM 36.3394 -91.6581 131° Southeast 429 494 45,000  Level Memphis Center
Wed 10:44:52 AM 36.2606 -91.5478 132° Southeast 427 491 45,000  Level Memphis Center
Wed 10:45:54 AM 36.1811 -91.4378 132° Southeast 429 494 45,000  Level Memphis Center
Wed 10:46:56 AM 36.0883 -91.3069 131° Southeast 424 488 45,000  Level Memphis Center
Wed 10:47:57 AM 36.0094 -91.1992 132° Southeast 423 487 45,000  Level Memphis Center
Wed 10:48:59 AM 35.9325 -91.0917 131° Southeast 420 483 45,000  Level Memphis Center
Wed 10:50:00 AM 35.8550 -90.9844 132° Southeast 419 482 45,000  Level Memphis Center
Wed 10:51:02 AM 35.7772 -90.8792 132° Southeast 418 481 45,000  Level Memphis Center
Wed 10:52:03 AM 35.7003 -90.7725 132° Southeast 417 480 45,000  Level Memphis Center
Wed 10:53:05 AM 35.6139 -90.6553 132° Southeast 416 479 45,000  Level Memphis Center
Wed 10:54:07 AM 35.5353 -90.5492 132° Southeast 416 479 45,000  Level Memphis Center
Wed 10:55:08 AM 35.4569 -90.4422 132° Southeast 417 480 45,000  Level Memphis Center
Wed 10:56:10 AM 35.3786 -90.3361 132° Southeast 416 479 45,000  Level Memphis Center
Wed 10:57:11 AM 35.3014 -90.2314 132° Southeast 413 475 45,000  Level Memphis Center
Wed 10:58:13 AM 35.2219 -90.1253 132° Southeast 417 480 45,000  Level Memphis Center
Wed 10:59:15 AM 35.1436 -90.0203 132° Southeast 414 476 45,000  Level Memphis Center
Wed 11:00:16 AM 35.0656 -89.9153 132° Southeast 414 476 45,000  Level Memphis Center
Wed 11:01:18 AM 34.9864 -89.8103 133° Southeast 413 475 45,000  Level Memphis Center
Wed 11:02:20 AM 34.8939 -89.6894 133° Southeast 413 475 45,000  Level Memphis Center
Wed 11:03:21 AM 34.8172 -89.5861 132° Southeast 412 474 45,000  Level Memphis Center
Wed 11:04:23 AM 34.7464 -89.4944 133° Southeast 412 474 45,000  Level Memphis Center
Wed 11:05:24 AM 34.6678 -89.3911 133° Southeast 412 474 45,000  Level Memphis Center
Wed 11:06:26 AM 34.5764 -89.2714 133° Southeast 410 472 45,000  Level Memphis Center
Wed 11:07:28 AM 34.4981 -89.1692 133° Southeast 409 471 45,000  Level Memphis Center
Wed 11:08:29 AM 34.4197 -89.0664 133° Southeast 411 473 45,000  Level Memphis Center
Wed 11:09:31 AM 34.3417 -88.9656 133° Southeast 408 470 45,000  Level Memphis Center
Wed 11:10:33 AM 34.2622 -88.8633 133° Southeast 411 473 45,000  Level Memphis Center
Wed 11:11:34 AM 34.1903 -88.7708 133° Southeast 410 472 45,000  Level Memphis Center
Wed 11:12:36 AM 34.1000 -88.6514 132° Southeast 406 467 45,000  Level Memphis Center
Wed 11:13:38 AM 34.0231 -88.5536 134° Southeast 404 465 45,000  Level Memphis Center
Wed 11:14:39 AM 33.9456 -88.4542 133° Southeast 407 468 45,000  Level Memphis Center
Wed 11:15:41 AM 33.8706 -88.3586 133° Southeast 399 459 45,000  Level Memphis Center
Wed 11:16:43 AM 33.7953 -88.2633 134° Southeast 396 456 45,000  Level Memphis Center
Wed 11:17:44 AM 33.7206 -88.1686 133° Southeast 394 453 45,000  Level Memphis Center
Wed 11:18:46 AM 33.6317 -88.0569 134° Southeast 391 450 45,000  Level Memphis Center
Wed 11:19:48 AM 33.5575 -87.9619 133° Southeast 391 450 45,000  Level Memphis Center
Wed 11:20:49 AM 33.4817 -87.8675 134° Southeast 393 452 45,000  Level Memphis Center
Wed 11:21:51 AM 33.4064 -87.7736 134° Southeast 394 453 45,000  Level Memphis Center
Wed 11:22:52 AM 33.3317 -87.6800 134° Southeast 391 450 45,000  Level Memphis Center
Wed 11:23:23 AM 33.2831 -87.6219 135° Southeast 397 457 45,000  Level Atlanta Center
Wed 11:24:23 AM 33.2083 -87.5294 134° Southeast 397 457 45,000  Level Atlanta Center
Wed 11:25:23 AM 33.1336 -87.4372 134° Southeast 397 457 45,000  Level Atlanta Center
Wed 11:26:23 AM 33.0592 -87.3428 133° Southeast 397 457 45,000  Level Atlanta Center
Wed 11:27:23 AM 32.9922 -87.2658 136° Southeast 391 450 45,000  Level Atlanta Center
Wed 11:28:23 AM 32.9194 -87.1742 133° Southeast 385 443 45,000  Level Atlanta Center
Wed 11:29:23 AM 32.8486 -87.0825 133° Southeast 385 443 45,000  Level Atlanta Center
Wed 11:30:23 AM 32.7758 -86.9886 133° Southeast 380 437 45,000  Level Atlanta Center
Wed 11:31:23 AM 32.7028 -86.8972 134° Southeast 380 437 45,000  Level Atlanta Center
Wed 11:32:23 AM 32.6278 -86.8061 134° Southeast 377 434 45,000  Level Atlanta Center
Wed 11:33:23 AM 32.5525 -86.7200 136° Southeast 377 434 45,000  Level Atlanta Center
Wed 11:34:23 AM 32.4750 -86.6242 134° Southeast 372 428 45,000  Level Atlanta Center
Wed 11:35:23 AM 32.3997 -86.5333 134° Southeast 372 428 45,000  Level Atlanta Center
Wed 11:36:23 AM 32.3222 -86.4403 135° Southeast 386 444 45,000  Level Atlanta Center
Wed 11:38:11 AM 32.1842 -86.2725 134° Southeast 401 461 45,000  Level Jacksonville Center
Wed 11:39:11 AM 32.1092 -86.1814 134° Southeast 392 451 45,000  Level Jacksonville Center
Wed 11:40:11 AM 32.0219 -86.0878 138° Southeast 403 464 45,000  Level Jacksonville Center
Wed 11:41:11 AM 31.9447 -85.9944 134° Southeast 410 472 45,000  Level Jacksonville Center
Wed 11:42:11 AM 31.8678 -85.9014 134° Southeast 404 465 45,000  Level Jacksonville Center
Wed 11:43:11 AM 31.7886 -85.8083 135° Southeast 399 459 45,000  Level Jacksonville Center
Wed 11:44:11 AM 31.7111 -85.7181 135° Southeast 394 453 45,000  Level Jacksonville Center
Wed 11:45:11 AM 31.6317 -85.6278 136° Southeast 394 453 45,000  Level Jacksonville Center
Wed 11:46:11 AM 31.5544 -85.5353 134° Southeast 394 453 45,000  Level Jacksonville Center
Wed 11:47:11 AM 31.4769 -85.4431 135° Southeast 394 453 45,000  Level Jacksonville Center
Wed 11:48:11 AM 31.3972 -85.3508 135° Southeast 394 453 45,000  Level Jacksonville Center
Wed 11:49:11 AM 31.3300 -85.2664 133° Southeast 394 453 45,000  Level Jacksonville Center
Wed 11:50:11 AM 31.2525 -85.1744 135° Southeast 394 453 45,000  Level Jacksonville Center
Wed 11:51:11 AM 31.1661 -85.0972 143° Southeast 394 453 45,000  Level Jacksonville Center
Wed 11:52:11 AM 31.0797 -85.0200 143° Southeast 394 453 45,000  Level Jacksonville Center
Wed 11:53:11 AM 30.9975 -84.9381 139° Southeast 389 448 45,000  Level Jacksonville Center
Wed 11:54:11 AM 30.9111 -84.8586 142° Southeast 389 448 45,000  Level Jacksonville Center
Wed 11:55:11 AM 30.8286 -84.7844 142° Southeast 389 448 45,000  Level Jacksonville Center
Wed 11:56:11 AM 30.7422 -84.7031 141° Southeast 389 448 45,000  Level Jacksonville Center
Wed 11:57:11 AM 30.6556 -84.6239 142° Southeast 389 448 45,000  Level Jacksonville Center
Wed 11:58:11 AM 30.5711 -84.5478 142° Southeast 389 448 45,000  Level Jacksonville Center
Wed 11:59:11 AM 30.4844 -84.4692 142° Southeast 389 448 45,000  Level Jacksonville Center
Wed 12:00:11 PM 30.3997 -84.3931 142° Southeast 389 448 45,000  Level Jacksonville Center
Wed 12:01:11 PM 30.3108 -84.3097 141° Southeast 394 453 45,000  Level Jacksonville Center
Wed 12:02:11 PM 30.2219 -84.2317 143° Southeast 394 453 45,000  Level Jacksonville Center
Wed 12:03:11 PM 30.1289 -84.1486 142° Southeast 394 453 45,000  Level Jacksonville Center
Wed 12:04:11 PM 30.0397 -84.0683 142° Southeast 394 453 45,000  Level Jacksonville Center
Wed 12:05:11 PM 29.9508 -83.9906 143° Southeast 399 459 45,000  Level Jacksonville Center
Wed 12:06:11 PM 29.8617 -83.9106 142° Southeast 399 459 45,000  Level Jacksonville Center
Wed 12:07:11 PM 29.7744 -83.8306 141° Southeast 405 466 45,000  Level Jacksonville Center
Wed 12:08:11 PM 29.6833 -83.7533 144° Southeast 405 466 45,000  Level Jacksonville Center
Wed 12:09:11 PM 29.5939 -83.6689 141° Southeast 405 466 45,000  Level Jacksonville Center
Wed 12:10:11 PM 29.5025 -83.5917 144° Southeast 405 466 45,000  Level Jacksonville Center
Wed 12:11:11 PM 29.4133 -83.5100 141° Southeast 405 466 45,000  Level Jacksonville Center
Wed 12:12:11 PM 29.3217 -83.4283 142° Southeast 405 466 45,000  Level Jacksonville Center
Wed 12:13:11 PM 29.2344 -83.3519 143° Southeast 405 466 45,000  Level Jacksonville Center
Wed 12:14:11 PM 29.1428 -83.2706 142° Southeast 405 466 45,000  Level Jacksonville Center
Wed 12:15:11 PM 29.0533 -83.1942 143° Southeast 411 473 45,000 -150 Level Jacksonville Center
Wed 12:16:11 PM 28.9617 -83.1156 143° Southeast 411 473 44,700 -700 Descending Jacksonville Center
Wed 12:17:11 PM 28.8739 -83.0372 142° Southeast 411 473 43,600 -1,050 Descending Jacksonville Center
Wed 12:18:11 PM 28.7844 -82.9614 143° Southeast 411 473 42,600 -1,000 Descending Jacksonville Center
Wed 12:19:11 PM 28.6967 -82.8856 143° Southeast 405 466 41,600 -950 Descending Jacksonville Center
Wed 12:20:11 PM 28.6236 -82.8192 141° Southeast 388 447 40,700 -950 Descending Jacksonville Center
Wed 12:21:11 PM 28.5400 -82.7483 143° Southeast 382 440 39,700 -850 Descending Jacksonville Center
Wed 12:22:11 PM 28.4503 -82.6706 143° Southeast 393 452 39,000 -350 Descending Jacksonville Center
Wed 12:23:11 PM 28.3644 -82.5953 142° Southeast 393 452 39,000  Level Jacksonville Center
Wed 12:24:11 PM 28.2767 -82.5203 143° Southeast 393 452 39,000 -750 Level Jacksonville Center
Wed 12:25:11 PM 28.1889 -82.4428 142° Southeast 393 452 37,500 -1,500 Descending Jacksonville Center
Wed 12:26:11 PM 28.0989 -82.3678 144° Southeast 393 452 36,000 -1,119 Descending Jacksonville Center
Wed 12:27:25 PM 27.9850 -82.2922 150° Southeast 393 452 35,000 -761 Descending Miami Center
Wed 12:28:25 PM 27.8842 -82.2592 164° South 376 433 34,300 -1,100 Descending Miami Center
Wed 12:29:25 PM 27.7769 -82.2214 163° South 370 426 32,800 -1,400 Descending Miami Center
Wed 12:30:25 PM 27.6864 -82.1889 162° South 370 426 31,500 -1,450 Descending Miami Center
Wed 12:31:25 PM 27.5814 -82.1536 163° South 370 426 29,900 -1,500 Descending Miami Center
Wed 12:32:25 PM 27.4906 -82.1214 163° South 360 414 28,500 -1,400 Descending Miami Center
Wed 12:33:25 PM 27.3978 -82.0892 163° South 351 404 27,100 -1,350 Descending Miami Center
Wed 12:34:25 PM 27.3194 -82.0622 163° South 338 389 25,800 -1,350 Descending Miami Center
Wed 12:35:25 PM 27.2328 -82.0350 164° South 333 383 24,400 -900 Descending Miami Center
Wed 12:36:25 PM 27.1400 -82.0050 164° South 328 377 24,000 -200 Descending Miami Center
Wed 12:37:25 PM 27.0556 -81.9781 164° South 321 369 24,000 -50 Level Miami Center
Wed 12:38:25 PM 26.9731 -81.9489 163° South 316 364 23,900 -700 Descending Miami Center
Wed 12:39:25 PM 26.8908 -81.9103 157° South 316 364 22,600 -1,200 Descending Miami Center
Wed 12:40:25 PM 26.8264 -81.8447 138° Southeast 311 358 21,500 -1,200 Descending Miami Center
Wed 12:41:25 PM 26.7639 -81.7747 135° Southeast 316 364 20,200 -1,250 Descending Miami Center
Wed 12:42:25 PM 26.7014 -81.7092 137° Southeast 316 364 19,000 -700 Descending Miami Center
Wed 12:43:25 PM 26.6942 -81.6158 95° East 300 345 18,800 -500 Descending Miami Center
Wed 12:44:25 PM 26.7183 -81.5147 75° East 311 358 18,000 -850 Descending Miami Center
Wed 12:45:25 PM 26.7422 -81.4156 75° East 327 376 17,100 -1,250 Descending Miami Center
Wed 12:46:25 PM 26.7642 -81.3189 76° East 327 376 15,500 -1,550 Descending Miami Center
Wed 12:47:25 PM 26.7856 -81.2267 75° East 311 358 14,000 -1,450 Descending Miami Center
Wed 12:48:25 PM 26.8072 -81.1319 76° East 306 352 12,600 -1,500 Descending Miami Center
Wed 12:49:25 PM 26.8203 -81.0417 81° East 301 346 11,000 -1,300 Descending Miami Center
Wed 12:50:25 PM 26.8294 -80.9442 84° East 290 334 10,000 -500 Descending Miami Center
Wed 12:51:25 PM 26.8361 -80.8561 85° East 285 328 10,000  Level Miami Center
Wed 12:52:25 PM 26.8153 -80.7739 106° East 285 328 10,000 -650 Level Miami Center
Wed 12:53:25 PM 26.7942 -80.6989 107° East 280 322 8,700 -1,500 Descending Miami Center
Wed 12:54:25 PM 26.7653 -80.6142 111° Southeast 274 315 7,000 -1,700 Descending Miami Center
Wed 12:55:25 PM 26.7461 -80.5483 108° East 258 297 5,300 -1,900 Descending Miami Center
Wed 12:56:25 PM 26.7250 -80.4664 106° East 244 281 3,200 -1,600 Descending Miami Center
Wed 12:57:25 PM 26.7078 -80.4053 107° East 239 275 2,100 -600 Descending Miami Center
Wed 12:58:25 PM 26.6928 -80.3328 103° East 227 261 2,000 -50 Descending Miami Center
Wed 12:59:25 PM 26.6900 -80.2747 93° East 215 247 2,000  Level Miami Center
Wed 01:01:00 PM 26.6194 -80.1464 50° Northeast  Level FlightAware Approximate
Wed 01:08:00 PM 26.6667 -80.0833 50° Northeast  Level FlightAware Approximate
Wed 01:09:00 PM 26.6832 -80.0956 50° Northeast  Level Estimated
Wed 01:10:00 PM 26.6832 -80.0956 50° Northeast  Level Estimated
Wed 01:11:00 PM 26.6832 -80.0956 50° Northeast  Level Estimated

Login

Don't have an account? Register now (free) for customized features, flight alerts, and more!